Terminal Aerodrome Forecast
Issued by NWS Pittsburgh, PA

Home | Current Version | Previous Version | Text Only | Print | Product List | Glossary On
Versions: 1 2 3 4 5 6 7 8 9 10 11 12 13 14 15 16 17 18 19 20 21 22 23 24 25 26 27 28 29 30 31 32
000
FTUS41 KPBZ 011100
TAFPIT
TAF
KPIT 011120Z 0112/0218 21004KT P6SM OVC012
      TEMPO 0112/0114 4SM -DZ BR BKN009
     FM011500 23005KT P6SM OVC025
     FM011800 23008KT P6SM BKN040
     FM021000 24006KT P6SM VCSH BKN025=

USA.gov is the U.S. government's official web portal to all federal, state and local government web resources and services.